Latest Weather Observations for Mount Read

IDT60801

Issued at 8:05 pm EST Wednesday 23 April 2014 (issued every 30 minutes, with the page automatically refreshed every 10 minutes)

About weather observations | Map of weather stations | Latest weather observations for TAS | Other Formats
Station Details ID: 097085 Name: MOUNT READ Lat: -41.84 Lon: 145.54 Height: 1119.5 m
Data from the previous 72 hours. | See also: Recent months at Mount Read
Date/Time
EST
Temp
°C
App
Temp
°C
Dew
Point
Rel
Hum
%
Delta-T
°C
Wind Press
QNH
hPa
Press
MSL
hPa
Rain
since 9 am
mm
Dir
 
Spd
km/h
Gust
km/h
Spd
kts
Gust
kts
23/08:00pm 5.0 -2.2 4.9 99 0.0 N 32 43 17 23 1007.5 1007.5 0.0
23/07:30pm 5.0 -2.4 4.9 99 0.0 N 33 44 18 24 1008.0 - 0.0
23/07:08pm 5.0 -2.2 4.9 99 0.0 N 32 52 17 28 1008.1 - 0.0
23/07:00pm 4.9 -2.0 4.8 99 0.0 N 30 46 16 25 1008.2 1008.2 0.0
23/06:30pm 4.8 -1.3 4.7 99 0.0 N 26 35 14 19 1008.4 - 0.0
23/06:00pm 4.8 -0.9 4.7 99 0.0 N 24 33 13 18 1008.6 1008.6 0.0
23/05:30pm 5.0 -1.1 4.9 99 0.0 N 26 33 14 18 1009.0 - 0.0
23/05:00pm 4.9 -2.3 4.8 99 0.0 N 32 44 17 24 1009.0 1009.0 0.0
23/04:30pm 5.0 -2.2 4.9 99 0.0 N 32 43 17 23 1009.2 - 0.0
23/04:00pm 5.2 -1.6 5.1 99 0.0 N 30 37 16 20 1009.4 1009.4 0.0
23/03:30pm 5.2 -1.6 5.1 99 0.0 N 30 39 16 21 1009.4 - 0.0
23/03:00pm 5.5 -1.6 5.4 99 0.0 N 32 43 17 23 1009.5 1009.5 0.0
23/02:30pm 5.9 -0.4 5.8 99 0.0 N 28 37 15 20 1009.8 - 0.0
23/02:00pm 5.3 -0.7 5.2 99 0.0 N 26 33 14 18 1010.3 1010.3 0.0
23/01:30pm 5.0 -1.8 4.9 99 0.0 N 30 37 16 20 1010.8 - 0.0
23/01:00pm 5.0 -1.5 4.9 99 0.0 N 28 37 15 20 1011.2 1011.2 0.0
23/12:30pm 5.1 -1.0 5.0 99 0.0 N 26 33 14 18 1011.5 - 0.0
23/12:00pm 4.7 -1.1 4.6 99 0.0 N 24 35 13 19 1012.2 1012.3 0.0
23/11:30am 4.5 -2.1 4.4 99 0.0 N 28 44 15 24 1012.4 - 0.0
23/11:00am 5.4 -0.6 5.3 99 0.0 N 26 35 14 19 1012.5 1012.6 0.0
23/10:30am 4.8 -1.3 4.7 99 0.0 N 26 39 14 21 1012.5 - 0.0
23/10:00am 4.7 -1.8 4.6 99 0.0 N 28 35 15 19 1013.0 1013.1 0.0
23/09:30am 4.5 -1.7 4.4 99 0.0 N 26 35 14 19 1013.0 - 0.0
23/09:00am 4.2 -1.7 4.1 99 0.0 N 24 30 13 16 1013.2 1013.3 7.4
23/08:30am 3.8 -1.8 3.7 99 0.0 N 22 28 12 15 1013.2 - 7.4
23/08:00am 3.7 -1.3 3.6 99 0.0 NNW 19 22 10 12 1013.3 1013.4 7.4
23/07:30am 3.8 -1.2 3.7 99 0.0 N 19 30 10 16 1013.2 - 7.4
23/07:00am 3.6 -0.7 3.5 99 0.0 N 15 22 8 12 1013.2 1013.3 7.4
23/06:30am 3.7 -0.5 3.6 99 0.0 NNW 15 22 8 12 1013.2 - 7.2
23/06:00am 3.9 0.8 3.8 99 0.0 NNW 9 20 5 11 1013.4 1013.5 7.2
23/05:30am 3.8 -0.4 3.7 99 0.0 NNW 15 24 8 13 1013.4 - 7.2
23/05:00am 3.6 -1.4 3.5 99 0.0 NNW 19 32 10 17 1013.2 1013.3 7.2
23/04:30am 3.1 -2.6 3.0 99 0.0 WNW 22 30 12 16 1013.1 - 7.0
23/04:00am 3.4 -2.6 3.3 99 0.0 WNW 24 35 13 19 1013.3 1013.4 7.0
23/03:30am 3.5 -0.4 3.4 99 0.0 NW 13 22 7 12 1013.2 - 7.0
23/03:00am 3.6 -1.6 3.5 99 0.0 WNW 20 30 11 16 1013.3 1013.4 7.0
23/02:30am 3.9 -1.6 3.8 99 0.0 WNW 22 32 12 17 1013.5 - 7.0
23/02:00am 3.8 -1.2 3.7 99 0.0 WNW 19 32 10 17 1013.7 1013.8 7.0
23/01:30am 3.6 -1.6 3.5 99 0.0 WNW 20 32 11 17 1013.7 - 7.0
23/01:00am 3.8 -2.9 3.7 99 0.0 WNW 28 39 15 21 1013.7 1013.8 7.0
23/12:30am 4.0 -1.1 3.9 99 0.0 WNW 20 32 11 17 1013.9 - 6.4
23/12:00am 4.0 -0.9 3.9 99 0.0 W 19 24 10 13 1013.7 1013.8 6.2
 
Date/Time
EST
Temp
°C
App
Temp
°C
Dew
Point
Rel
Hum
%
Delta-T
°C
Wind Press
QNH
hPa
Press
MSL
hPa
Rain
since 9 am
mm
Dir
 
Spd
km/h
Gust
km/h
Spd
kts
Gust
kts
22/11:30pm 4.0 -1.1 3.9 99 0.0 W 20 28 11 15 1013.9 - 6.2
22/11:00pm 3.9 -1.3 3.8 99 0.0 WNW 20 32 11 17 1014.0 1014.1 6.2
22/10:30pm 3.8 -1.8 3.7 99 0.0 W 22 32 12 17 1014.0 - 6.2
22/10:00pm 3.5 -2.5 3.4 99 0.0 W 24 32 13 17 1014.0 1014.1 6.2
22/09:30pm 3.9 -2.8 3.8 99 0.0 W 28 37 15 20 1013.9 - 6.2
22/09:00pm 4.0 -3.4 3.9 99 0.0 WSW 32 39 17 21 1013.5 1013.6 6.2
22/08:30pm 3.8 -3.3 3.7 99 0.0 W 30 41 16 22 1013.4 - 6.2
22/08:00pm 4.1 -2.9 4.0 99 0.0 W 30 37 16 20 1013.3 1013.4 6.2
22/07:30pm 4.3 -2.3 4.2 99 0.0 W 28 39 15 21 1013.2 - 6.2
22/07:00pm 4.1 -2.9 4.0 99 0.0 W 30 37 16 20 1013.0 1013.1 6.2
22/06:30pm 4.3 -4.0 4.2 99 0.0 W 37 52 20 28 1012.4 - 6.2
22/06:21pm 4.3 -3.2 4.2 99 0.0 W 33 52 18 28 1012.2 - 6.0
22/06:00pm 4.5 -2.1 4.4 99 0.0 W 28 35 15 19 1012.2 1012.3 6.0
22/05:30pm 4.3 -1.5 4.2 99 0.0 W 24 32 13 17 1011.9 - 5.0
22/05:00pm 4.2 -2.0 4.1 99 0.0 W 26 39 14 21 1011.8 1011.8 5.0
22/04:30pm 4.5 -2.8 4.4 99 0.0 WNW 32 46 17 25 1011.6 - 5.0
22/04:00pm 4.3 -3.2 4.2 99 0.0 W 33 44 18 24 1011.4 1011.5 5.0
22/03:30pm 4.0 -3.0 3.9 99 0.0 W 30 39 16 21 1011.4 - 5.0
22/03:00pm 4.9 -0.8 4.8 99 0.0 WNW 24 35 13 19 1011.3 1011.4 5.0
22/02:30pm 5.2 -0.8 5.1 99 0.0 W 26 37 14 20 1011.1 - 5.0
22/02:00pm 4.8 -1.3 4.7 99 0.0 W 26 41 14 22 1011.0 1011.0 5.0
22/01:30pm 5.0 -0.7 4.9 99 0.0 W 24 37 13 20 1010.9 - 5.0
22/01:00pm 5.1 -1.7 5.0 99 0.0 W 30 41 16 22 1010.6 1010.7 5.0
22/12:30pm 5.1 -2.7 5.0 99 0.0 W 35 48 19 26 1010.5 - 4.8
22/12:00pm 5.6 -1.7 5.5 99 0.0 W 33 41 18 22 1010.6 1010.7 4.4
22/11:30am 6.2 0.7 6.1 99 0.0 WSW 24 32 13 17 1010.4 - 4.0
22/11:00am 6.1 0.6 6.0 99 0.0 WSW 24 33 13 18 1010.2 1010.2 3.8
22/10:30am 6.5 0.7 6.4 99 0.0 WSW 26 35 14 19 1009.8 - 2.8
22/10:00am 6.5 1.1 6.4 99 0.0 WSW 24 33 13 18 1009.6 1009.6 2.8
22/09:30am 5.8 -1.8 5.7 99 0.0 WNW 35 46 19 25 1009.0 - 1.8
22/09:00am 5.8 -0.1 5.7 99 0.0 NW 26 41 14 22 1008.9 1008.8 13.0
22/08:54am 5.9 0.8 5.8 99 0.0 N 22 35 12 19 1008.6 - 13.0
22/08:36am 6.1 -3.0 6.0 99 0.0 WNW 43 63 23 34 1009.2 - 13.0
22/08:30am 6.0 -3.1 5.9 99 0.0 WNW 43 57 23 31 1008.9 - 13.0
22/08:00am 6.5 -2.5 6.4 99 0.0 NW 43 63 23 34 1008.6 1008.6 12.6
22/07:38am 7.2 -1.8 7.1 99 0.0 WNW 44 63 24 34 1008.2 - 12.4
22/07:30am 7.0 -3.6 6.9 99 0.0 WNW 52 63 28 34 1007.9 - 12.4
22/07:07am 7.1 0.1 7.0 99 0.0 NW 33 54 18 29 1007.7 - 11.6
22/07:00am 7.2 0.3 7.1 99 0.0 NW 33 48 18 26 1007.7 1007.7 11.6
22/06:30am 7.2 0.4 7.1 99 0.0 WNW 32 54 17 29 1007.5 - 11.6
22/06:28am 7.3 1.3 7.2 99 0.0 NW 28 54 15 29 1007.4 - 11.6
22/06:00am 7.5 0.2 7.4 99 0.1 WNW 35 54 19 29 1007.3 1007.2 11.6
22/05:30am 7.9 1.3 7.8 99 0.1 WNW 32 54 17 29 1007.5 - 11.4
22/05:02am 7.9 2.1 7.8 99 0.1 NW 28 46 15 25 1007.1 - 11.4
22/05:00am 8.1 2.7 8.0 99 0.1 NW 26 46 14 25 1007.1 1007.0 11.4
22/04:30am 8.3 1.6 8.2 99 0.1 NW 33 54 18 29 1007.3 - 11.2
22/04:27am 8.3 1.2 8.2 99 0.1 NW 35 54 19 29 1007.2 - 11.2
22/04:24am 8.2 0.7 8.1 99 0.1 NW 37 54 20 29 1007.1 - 11.2
22/04:00am 8.6 2.0 8.5 99 0.1 NNW 33 63 18 34 1007.0 1006.9 11.2
22/03:30am 9.1 1.9 9.0 99 0.1 N 37 56 20 30 1006.2 - 10.6
22/03:00am 9.2 2.4 9.1 99 0.1 NNW 35 57 19 31 1006.4 1006.3 9.8
22/02:30am 9.2 2.7 9.1 99 0.1 NNW 33 63 18 34 1006.5 - 9.8
22/02:02am 9.0 1.4 8.9 99 0.1 N 39 59 21 32 1006.4 - 9.2
22/02:00am 9.1 1.1 9.0 99 0.1 N 41 59 22 32 1006.4 1006.3 9.0
22/01:30am 9.0 1.0 8.9 99 0.1 N 41 65 22 35 1006.6 - 9.0
22/01:02am 8.8 0.3 8.7 99 0.1 N 43 61 23 33 1006.9 - 9.0
22/01:00am 8.8 0.2 8.7 99 0.1 N 44 61 24 33 1006.7 1006.7 9.0
22/12:30am 8.5 -1.0 8.4 99 0.1 N 48 69 26 37 1006.5 - 8.8
22/12:00am 8.5 -2.1 8.4 99 0.1 N 54 76 29 41 1006.5 1006.4 8.8
 
Date/Time
EST
Temp
°C
App
Temp
°C
Dew
Point
Rel
Hum
%
Delta-T
°C
Wind Press
QNH
hPa
Press
MSL
hPa
Rain
since 9 am
mm
Dir
 
Spd
km/h
Gust
km/h
Spd
kts
Gust
kts
21/11:30pm 8.3 -1.2 8.2 99 0.1 N 48 70 26 38 1007.0 - 8.8
21/11:00pm 8.1 -1.9 8.0 99 0.1 N 50 69 27 37 1006.5 1006.4 8.8
21/10:30pm 7.8 -2.6 7.7 99 0.1 N 52 80 28 43 1006.6 - 8.8
21/10:00pm 7.4 -2.3 7.3 99 0.0 N 48 70 26 38 1007.4 1007.4 8.6
21/09:30pm 7.1 -2.7 7.0 99 0.0 N 48 72 26 39 1007.5 - 8.6
21/09:00pm 6.5 -3.8 6.4 99 0.0 N 50 80 27 43 1007.7 1007.7 8.6
21/08:30pm 6.1 -4.3 6.0 99 0.0 N 50 72 27 39 1008.1 - 8.6
21/08:00pm 6.0 -4.1 5.9 99 0.0 N 48 72 26 39 1008.4 1008.4 8.4
21/07:37pm 5.9 -3.4 5.8 99 0.0 N 44 69 24 37 1008.8 - 8.0
21/07:30pm 6.0 -3.7 5.9 99 0.0 N 46 59 25 32 1008.9 - 8.0
21/07:07pm 5.8 -3.0 5.7 99 0.0 N 41 67 22 36 1009.2 - 7.8
21/07:00pm 5.7 -3.1 5.6 99 0.0 N 41 59 22 32 1009.4 1009.4 7.6
21/06:54pm 5.6 -2.8 5.5 99 0.0 N 39 59 21 32 1009.3 - 7.6
21/06:30pm 5.3 -2.1 5.2 99 0.0 N 33 44 18 24 1009.5 - 7.4
21/06:00pm 5.2 -2.9 5.1 99 0.0 N 37 48 20 26 1009.6 1009.6 6.6
21/05:30pm 5.1 -2.7 5.0 99 0.0 N 35 43 19 23 1010.0 - 4.8
21/05:00pm 5.0 -3.6 4.9 99 0.0 N 39 50 21 27 1010.2 1010.2 3.6
21/04:30pm 5.1 -2.7 5.0 99 0.0 N 35 46 19 25 1010.1 - 2.8
21/04:00pm 4.9 -1.6 4.8 99 0.0 N 28 37 15 20 1010.9 1010.9 2.8
21/03:30pm 5.0 -1.5 4.9 99 0.0 N 28 44 15 24 1011.5 - 1.4
21/03:00pm 5.0 -1.8 4.9 99 0.0 N 30 39 16 21 1011.6 1011.7 0.6
21/02:30pm 4.3 -1.9 4.2 99 0.0 N 26 37 14 20 1012.0 - 0.6
21/02:00pm 4.0 -3.4 3.9 99 0.0 N 32 41 17 22 1011.9 1011.9 0.4
21/01:30pm 3.7 -2.6 3.6 99 0.0 N 26 33 14 18 1012.7 - 0.4
21/01:00pm 3.8 -1.8 3.7 99 0.0 N 22 28 12 15 1013.2 1013.3 0.4
21/12:30pm 3.8 -1.4 3.7 99 0.0 N 20 22 11 12 1013.8 - 0.4
21/12:00pm 3.3 -2.3 3.2 99 0.0 N 22 26 12 14 1014.0 1014.1 0.4
21/11:30am 2.8 -2.6 2.7 99 0.0 N 20 26 11 14 1014.4 - 0.2
21/11:00am 1.5 -3.1 1.4 99 0.0 N 15 19 8 10 1014.9 1015.0 0.2
21/10:30am 2.3 -2.7 1.1 92 0.5 N 17 20 9 11 1015.1 - 0.0
21/10:00am 2.8 -2.2 1.2 89 0.7 N 17 20 9 11 1015.1 1015.3 0.0
21/09:30am 2.5 -3.1 0.9 89 0.7 N 20 24 11 13 1015.3 - 0.0
21/09:00am 1.7 -4.1 -0.1 88 0.7 N 20 28 11 15 1015.4 1015.6 18.0
21/08:30am 1.7 -3.4 0.5 92 0.5 N 17 22 9 12 1015.6 - 18.0
21/08:00am 0.9 -4.6 0.3 96 0.2 N 19 22 10 12 1015.3 1015.5 18.0
21/07:30am 2.0 -2.5 1.9 99 0.0 NNW 15 20 8 11 1015.2 - 18.0
21/07:00am 0.1 -3.0 0.0 99 0.0 NNE 6 11 3 6 1015.2 1015.4 18.0
21/06:30am -0.3 -3.1 -0.4 99 0.0 E 4 6 2 3 1015.1 - 18.0
21/06:00am -0.1 -3.3 -0.2 99 0.0 E 6 7 3 4 1015.0 1015.1 18.0
21/05:30am -0.1 -3.8 -0.2 99 0.0 SSE 9 11 5 6 1014.7 - 18.0
21/05:00am -0.3 -4.4 -0.4 99 0.0 SE 11 13 6 7 1014.8 1014.9 18.0
21/04:30am -0.1 -4.6 -0.2 99 0.0 SSE 13 17 7 9 1014.5 - 18.0
21/04:00am -0.3 -5.2 -0.4 99 0.0 SSE 15 17 8 9 1014.3 1014.4 18.0
21/03:30am -0.3 -5.2 -0.4 99 0.0 SSE 15 17 8 9 1014.4 - 18.0
21/03:00am -0.1 -5.0 -0.2 99 0.0 S 15 17 8 9 1014.7 1014.8 18.0
21/02:30am 0.0 -6.2 -0.1 99 0.0 S 22 26 12 14 1014.3 - 18.0
21/02:00am -0.1 -5.7 -0.2 99 0.0 S 19 22 10 12 1014.5 1014.7 18.0
21/01:30am 0.0 -5.2 -0.1 99 0.0 S 17 19 9 10 1014.4 - 18.0
21/01:00am 0.5 -4.3 0.4 99 0.0 SSW 15 17 8 9 1014.5 1014.7 18.0
21/12:30am 1.0 -4.6 0.9 99 0.0 S 20 26 11 14 1014.3 - 17.8
21/12:00am 1.3 -4.3 1.2 99 0.0 S 20 26 11 14 1014.2 1014.3 17.8
 
Date/Time
EST
Temp
°C
App
Temp
°C
Dew
Point
Rel
Hum
%
Delta-T
°C
Wind Press
QNH
hPa
Press
MSL
hPa
Rain
since 9 am
mm
Dir
 
Spd
km/h
Gust
km/h
Spd
kts
Gust
kts
20/11:30pm 1.4 -3.6 1.3 99 0.0 S 17 22 9 12 1014.1 - 17.8
20/11:00pm 1.6 -4.7 1.5 99 0.0 SSW 24 32 13 17 1014.1 1014.2 17.8
20/10:30pm 1.6 -4.0 1.5 99 0.0 SSW 20 26 11 14 1014.2 - 17.8
20/10:00pm 1.5 -3.9 1.4 99 0.0 SSW 19 22 10 12 1014.0 1014.1 17.8
20/09:30pm 1.7 -4.6 1.6 99 0.0 SSW 24 32 13 17 1013.9 - 17.8
20/09:00pm 1.9 -5.1 1.8 99 0.0 SSW 28 37 15 20 1013.5 1013.6 17.8
20/08:30pm 2.1 -5.3 2.0 99 0.0 SSW 30 39 16 21 1013.2 - 17.6

Other Formats:

Comma delimited format used in spreadsheet applications
http://www.bom.gov.au/fwo/IDT60801/IDT60801.95952.axf

JavaScript Object Notation format (JSON) in row-major order
http://www.bom.gov.au/fwo/IDT60801/IDT60801.95952.json